sensor_id;sensor_type;location;lat;lon;timestamp;temperature;humidity
19966;DHT22;10144;50.874;4.762;2024-02-14T00:00:29;8.90;99.90
19966;DHT22;10144;50.874;4.762;2024-02-14T00:02:57;9.00;99.90
19966;DHT22;10144;50.874;4.762;2024-02-14T00:05:24;8.90;99.90
19966;DHT22;10144;50.874;4.762;2024-02-14T00:07:52;8.80;99.90
19966;DHT22;10144;50.874;4.762;2024-02-14T00:10:21;8.90;99.90
19966;DHT22;10144;50.874;4.762;2024-02-14T00:12:48;8.90;99.90
19966;DHT22;10144;50.874;4.762;2024-02-14T00:15:15;8.90;99.90
19966;DHT22;10144;50.874;4.762;2024-02-14T00:17:44;8.90;99.90
19966;DHT22;10144;50.874;4.762;2024-02-14T00:20:10;9.10;99.90
19966;DHT22;10144;50.874;4.762;2024-02-14T00:22:43;9.10;99.90
19966;DHT22;10144;50.874;4.762;2024-02-14T00:25:15;9.10;99.90
19966;DHT22;10144;50.874;4.762;2024-02-14T00:27:44;9.10;99.90
19966;DHT22;10144;50.874;4.762;2024-02-14T00:30:13;9.10;99.90
19966;DHT22;10144;50.874;4.762;2024-02-14T00:32:41;9.10;99.90
19966;DHT22;10144;50.874;4.762;2024-02-14T00:35:10;9.10;99.90
19966;DHT22;10144;50.874;4.762;2024-02-14T00:37:40;9.10;99.90
19966;DHT22;10144;50.874;4.762;2024-02-14T00:40:07;9.10;99.90
19966;DHT22;10144;50.874;4.762;2024-02-14T00:42:34;9.20;99.90
19966;DHT22;10144;50.874;4.762;2024-02-14T00:45:03;9.20;99.90
19966;DHT22;10144;50.874;4.762;2024-02-14T00:47:32;9.10;99.90
19966;DHT22;10144;50.874;4.762;2024-02-14T00:49:58;9.20;99.90
19966;DHT22;10144;50.874;4.762;2024-02-14T00:52:27;9.20;99.90
19966;DHT22;10144;50.874;4.762;2024-02-14T00:54:56;9.30;99.90
19966;DHT22;10144;50.874;4.762;2024-02-14T00:57:28;9.40;99.90
19966;DHT22;10144;50.874;4.762;2024-02-14T00:59:55;9.30;99.90
19966;DHT22;10144;50.874;4.762;2024-02-14T01:02:29;9.30;99.90
19966;DHT22;10144;50.874;4.762;2024-02-14T01:04:55;9.30;99.90
19966;DHT22;10144;50.874;4.762;2024-02-14T01:07:24;9.30;99.90
19966;DHT22;10144;50.874;4.762;2024-02-14T01:09:50;9.40;99.90
19966;DHT22;10144;50.874;4.762;2024-02-14T01:12:34;9.40;99.90
19966;DHT22;10144;50.874;4.762;2024-02-14T01:15:03;9.40;99.90
19966;DHT22;10144;50.874;4.762;2024-02-14T01:17:33;9.30;99.90
19966;DHT22;10144;50.874;4.762;2024-02-14T01:20:02;9.30;99.90
19966;DHT22;10144;50.874;4.762;2024-02-14T01:22:28;9.40;99.90
19966;DHT22;10144;50.874;4.762;2024-02-14T01:24:54;9.50;99.90
19966;DHT22;10144;50.874;4.762;2024-02-14T01:27:23;9.60;99.90
19966;DHT22;10144;50.874;4.762;2024-02-14T01:29:55;9.40;99.90
19966;DHT22;10144;50.874;4.762;2024-02-14T01:32:26;9.50;99.90
19966;DHT22;10144;50.874;4.762;2024-02-14T01:34:58;9.50;99.90
19966;DHT22;10144;50.874;4.762;2024-02-14T01:37:33;9.50;99.90
19966;DHT22;10144;50.874;4.762;2024-02-14T01:40:02;9.40;99.90
19966;DHT22;10144;50.874;4.762;2024-02-14T01:42:31;9.40;99.90
19966;DHT22;10144;50.874;4.762;2024-02-14T01:45:00;9.40;99.90
19966;DHT22;10144;50.874;4.762;2024-02-14T01:47:31;9.40;99.90
19966;DHT22;10144;50.874;4.762;2024-02-14T01:50:00;9.40;99.90
19966;DHT22;10144;50.874;4.762;2024-02-14T01:52:27;9.30;99.90
19966;DHT22;10144;50.874;4.762;2024-02-14T01:54:59;9.30;99.90
19966;DHT22;10144;50.874;4.762;2024-02-14T01:57:28;9.40;99.90
19966;DHT22;10144;50.874;4.762;2024-02-14T01:59:54;9.40;99.90
19966;DHT22;10144;50.874;4.762;2024-02-14T02:02:25;9.40;99.90
19966;DHT22;10144;50.874;4.762;2024-02-14T02:04:55;9.40;99.90
19966;DHT22;10144;50.874;4.762;2024-02-14T02:07:22;9.40;99.90
19966;DHT22;10144;50.874;4.762;2024-02-14T02:09:48;9.30;99.90
19966;DHT22;10144;50.874;4.762;2024-02-14T02:12:14;9.30;99.90
19966;DHT22;10144;50.874;4.762;2024-02-14T02:14:43;9.30;99.90
19966;DHT22;10144;50.874;4.762;2024-02-14T02:17:11;9.30;99.90
19966;DHT22;10144;50.874;4.762;2024-02-14T02:20:01;9.30;99.90
19966;DHT22;10144;50.874;4.762;2024-02-14T02:22:28;9.30;99.90
19966;DHT22;10144;50.874;4.762;2024-02-14T02:25:02;9.30;99.90
19966;DHT22;10144;50.874;4.762;2024-02-14T02:27:36;9.30;99.90
19966;DHT22;10144;50.874;4.762;2024-02-14T02:30:06;9.30;99.90
19966;DHT22;10144;50.874;4.762;2024-02-14T02:32:35;9.20;99.90
19966;DHT22;10144;50.874;4.762;2024-02-14T02:35:04;9.30;99.90
19966;DHT22;10144;50.874;4.762;2024-02-14T02:37:31;9.20;99.90
19966;DHT22;10144;50.874;4.762;2024-02-14T02:39:59;9.30;99.90
19966;DHT22;10144;50.874;4.762;2024-02-14T02:42:28;9.20;99.90
19966;DHT22;10144;50.874;4.762;2024-02-14T02:45:00;9.10;99.90
19966;DHT22;10144;50.874;4.762;2024-02-14T02:47:34;9.30;99.90
19966;DHT22;10144;50.874;4.762;2024-02-14T02:50:04;9.30;99.90
19966;DHT22;10144;50.874;4.762;2024-02-14T02:52:30;9.20;99.90
19966;DHT22;10144;50.874;4.762;2024-02-14T02:54:57;9.30;99.90
19966;DHT22;10144;50.874;4.762;2024-02-14T02:57:24;9.10;99.90
19966;DHT22;10144;50.874;4.762;2024-02-14T02:59:55;9.20;99.90
19966;DHT22;10144;50.874;4.762;2024-02-14T03:02:26;9.30;99.90
19966;DHT22;10144;50.874;4.762;2024-02-14T03:04:54;9.30;99.90
19966;DHT22;10144;50.874;4.762;2024-02-14T03:07:23;9.30;99.90
19966;DHT22;10144;50.874;4.762;2024-02-14T03:09:52;9.30;99.90
19966;DHT22;10144;50.874;4.762;2024-02-14T03:12:20;9.40;99.90
19966;DHT22;10144;50.874;4.762;2024-02-14T03:14:50;9.40;99.90
19966;DHT22;10144;50.874;4.762;2024-02-14T03:17:19;9.40;99.90
19966;DHT22;10144;50.874;4.762;2024-02-14T03:19:48;9.40;99.90
19966;DHT22;10144;50.874;4.762;2024-02-14T03:22:18;9.50;99.90
19966;DHT22;10144;50.874;4.762;2024-02-14T03:24:44;9.50;99.90
19966;DHT22;10144;50.874;4.762;2024-02-14T03:27:15;9.60;99.90
19966;DHT22;10144;50.874;4.762;2024-02-14T03:29:45;9.60;99.90
19966;DHT22;10144;50.874;4.762;2024-02-14T03:32:14;9.60;99.90
19966;DHT22;10144;50.874;4.762;2024-02-14T03:34:43;9.60;99.90
19966;DHT22;10144;50.874;4.762;2024-02-14T03:37:10;9.60;99.90
19966;DHT22;10144;50.874;4.762;2024-02-14T03:39:36;9.60;99.90
19966;DHT22;10144;50.874;4.762;2024-02-14T03:42:04;9.50;99.90
19966;DHT22;10144;50.874;4.762;2024-02-14T03:44:34;9.50;99.90
19966;DHT22;10144;50.874;4.762;2024-02-14T03:47:03;9.60;99.90
19966;DHT22;10144;50.874;4.762;2024-02-14T03:49:32;9.60;99.90
19966;DHT22;10144;50.874;4.762;2024-02-14T03:51:58;9.60;99.90
19966;DHT22;10144;50.874;4.762;2024-02-14T03:54:29;9.60;99.90
19966;DHT22;10144;50.874;4.762;2024-02-14T03:56:55;9.40;99.90
19966;DHT22;10144;50.874;4.762;2024-02-14T03:59:21;9.60;99.90
19966;DHT22;10144;50.874;4.762;2024-02-14T04:01:52;9.60;99.90
19966;DHT22;10144;50.874;4.762;2024-02-14T04:04:37;9.70;99.90
19966;DHT22;10144;50.874;4.762;2024-02-14T04:07:05;9.70;99.90
19966;DHT22;10144;50.874;4.762;2024-02-14T04:09:35;9.70;99.90
19966;DHT22;10144;50.874;4.762;2024-02-14T04:12:04;9.60;99.90
19966;DHT22;10144;50.874;4.762;2024-02-14T04:14:37;9.60;99.90
19966;DHT22;10144;50.874;4.762;2024-02-14T04:17:08;9.70;99.90
19966;DHT22;10144;50.874;4.762;2024-02-14T04:19:54;9.50;99.90
19966;DHT22;10144;50.874;4.762;2024-02-14T04:22:23;9.60;99.90
19966;DHT22;10144;50.874;4.762;2024-02-14T04:24:55;9.60;99.90
19966;DHT22;10144;50.874;4.762;2024-02-14T04:27:24;9.70;99.90
19966;DHT22;10144;50.874;4.762;2024-02-14T04:29:56;9.60;99.90
19966;DHT22;10144;50.874;4.762;2024-02-14T04:32:23;9.70;99.90
19966;DHT22;10144;50.874;4.762;2024-02-14T04:34:53;9.60;99.90
19966;DHT22;10144;50.874;4.762;2024-02-14T04:37:21;9.70;99.90
19966;DHT22;10144;50.874;4.762;2024-02-14T04:39:53;9.60;99.90
19966;DHT22;10144;50.874;4.762;2024-02-14T04:42:19;9.70;99.90
19966;DHT22;10144;50.874;4.762;2024-02-14T04:44:50;9.70;99.90
19966;DHT22;10144;50.874;4.762;2024-02-14T04:47:22;9.60;99.90
19966;DHT22;10144;50.874;4.762;2024-02-14T04:49:48;9.70;99.90
19966;DHT22;10144;50.874;4.762;2024-02-14T04:52:15;9.60;99.90
19966;DHT22;10144;50.874;4.762;2024-02-14T04:54:44;9.70;99.90
19966;DHT22;10144;50.874;4.762;2024-02-14T04:57:13;9.60;99.90
19966;DHT22;10144;50.874;4.762;2024-02-14T04:59:44;9.70;99.90
19966;DHT22;10144;50.874;4.762;2024-02-14T05:02:09;9.70;99.90
19966;DHT22;10144;50.874;4.762;2024-02-14T05:04:39;9.80;99.90
19966;DHT22;10144;50.874;4.762;2024-02-14T05:07:08;9.80;99.90
19966;DHT22;10144;50.874;4.762;2024-02-14T05:09:34;9.90;99.90
19966;DHT22;10144;50.874;4.762;2024-02-14T05:12:06;9.90;99.90
19966;DHT22;10144;50.874;4.762;2024-02-14T05:14:38;10.00;99.90
19966;DHT22;10144;50.874;4.762;2024-02-14T05:17:08;10.00;99.90
19966;DHT22;10144;50.874;4.762;2024-02-14T05:19:42;9.90;99.90
19966;DHT22;10144;50.874;4.762;2024-02-14T05:22:10;9.80;99.90
19966;DHT22;10144;50.874;4.762;2024-02-14T05:24:35;9.80;99.90
19966;DHT22;10144;50.874;4.762;2024-02-14T05:27:08;9.90;99.90
19966;DHT22;10144;50.874;4.762;2024-02-14T05:29:37;10.00;99.90
19966;DHT22;10144;50.874;4.762;2024-02-14T05:32:06;10.00;99.90
19966;DHT22;10144;50.874;4.762;2024-02-14T05:34:37;10.00;99.90
19966;DHT22;10144;50.874;4.762;2024-02-14T05:37:06;10.00;99.90
19966;DHT22;10144;50.874;4.762;2024-02-14T05:39:34;10.00;99.90
19966;DHT22;10144;50.874;4.762;2024-02-14T05:42:03;9.90;99.90
19966;DHT22;10144;50.874;4.762;2024-02-14T05:44:34;10.00;99.90
19966;DHT22;10144;50.874;4.762;2024-02-14T05:47:01;9.90;99.90
19966;DHT22;10144;50.874;4.762;2024-02-14T05:49:30;9.90;99.90
19966;DHT22;10144;50.874;4.762;2024-02-14T05:51:58;9.80;99.90
19966;DHT22;10144;50.874;4.762;2024-02-14T05:54:31;9.90;99.90
19966;DHT22;10144;50.874;4.762;2024-02-14T05:57:00;9.90;99.90
19966;DHT22;10144;50.874;4.762;2024-02-14T05:59:28;9.80;99.90
19966;DHT22;10144;50.874;4.762;2024-02-14T06:01:57;9.80;99.90
19966;DHT22;10144;50.874;4.762;2024-02-14T06:04:26;9.80;99.90
19966;DHT22;10144;50.874;4.762;2024-02-14T06:06:55;9.80;99.90
19966;DHT22;10144;50.874;4.762;2024-02-14T06:09:24;9.90;99.90
19966;DHT22;10144;50.874;4.762;2024-02-14T06:11:55;10.00;99.90
19966;DHT22;10144;50.874;4.762;2024-02-14T06:14:24;9.90;99.90
19966;DHT22;10144;50.874;4.762;2024-02-14T06:16:53;9.80;99.90
19966;DHT22;10144;50.874;4.762;2024-02-14T06:19:22;9.90;99.90
19966;DHT22;10144;50.874;4.762;2024-02-14T06:21:51;10.00;99.90
19966;DHT22;10144;50.874;4.762;2024-02-14T06:24:18;10.00;99.90
19966;DHT22;10144;50.874;4.762;2024-02-14T06:26:47;10.20;99.90
19966;DHT22;10144;50.874;4.762;2024-02-14T06:29:13;10.30;99.90
19966;DHT22;10144;50.874;4.762;2024-02-14T06:31:42;10.30;99.90
19966;DHT22;10144;50.874;4.762;2024-02-14T06:34:08;10.20;99.90
19966;DHT22;10144;50.874;4.762;2024-02-14T06:36:36;10.20;99.90
19966;DHT22;10144;50.874;4.762;2024-02-14T06:39:06;10.20;99.90
19966;DHT22;10144;50.874;4.762;2024-02-14T06:41:34;10.20;99.90
19966;DHT22;10144;50.874;4.762;2024-02-14T06:44:06;10.20;99.90
19966;DHT22;10144;50.874;4.762;2024-02-14T06:46:44;10.10;99.90
19966;DHT22;10144;50.874;4.762;2024-02-14T06:49:10;10.30;99.90
19966;DHT22;10144;50.874;4.762;2024-02-14T06:51:39;10.30;99.90
19966;DHT22;10144;50.874;4.762;2024-02-14T06:54:11;10.40;99.90
19966;DHT22;10144;50.874;4.762;2024-02-14T06:56:43;10.50;99.90
19966;DHT22;10144;50.874;4.762;2024-02-14T06:59:12;10.60;99.90
19966;DHT22;10144;50.874;4.762;2024-02-14T07:01:41;10.60;99.90
19966;DHT22;10144;50.874;4.762;2024-02-14T07:04:12;10.50;99.90
19966;DHT22;10144;50.874;4.762;2024-02-14T07:06:38;10.50;99.90
19966;DHT22;10144;50.874;4.762;2024-02-14T07:09:07;10.60;99.90
19966;DHT22;10144;50.874;4.762;2024-02-14T07:11:35;10.50;99.90
19966;DHT22;10144;50.874;4.762;2024-02-14T07:14:04;10.60;99.90
19966;DHT22;10144;50.874;4.762;2024-02-14T07:16:33;10.50;99.90
19966;DHT22;10144;50.874;4.762;2024-02-14T07:19:04;10.60;99.90
19966;DHT22;10144;50.874;4.762;2024-02-14T07:21:33;10.70;99.90
19966;DHT22;10144;50.874;4.762;2024-02-14T07:23:59;10.70;99.90
19966;DHT22;10144;50.874;4.762;2024-02-14T07:26:27;10.70;99.90
19966;DHT22;10144;50.874;4.762;2024-02-14T07:28:56;10.80;99.90
19966;DHT22;10144;50.874;4.762;2024-02-14T07:31:28;10.80;99.90
19966;DHT22;10144;50.874;4.762;2024-02-14T07:33:55;10.70;99.90
19966;DHT22;10144;50.874;4.762;2024-02-14T07:36:24;10.70;99.90
19966;DHT22;10144;50.874;4.762;2024-02-14T07:38:52;10.70;99.90
19966;DHT22;10144;50.874;4.762;2024-02-14T07:41:28;10.80;99.90
19966;DHT22;10144;50.874;4.762;2024-02-14T07:43:56;10.80;99.90
19966;DHT22;10144;50.874;4.762;2024-02-14T07:46:23;10.80;99.90
19966;DHT22;10144;50.874;4.762;2024-02-14T07:48:51;10.70;99.90
19966;DHT22;10144;50.874;4.762;2024-02-14T07:51:20;10.80;99.90
19966;DHT22;10144;50.874;4.762;2024-02-14T07:53:46;10.90;99.90
19966;DHT22;10144;50.874;4.762;2024-02-14T07:56:12;11.00;99.90
19966;DHT22;10144;50.874;4.762;2024-02-14T07:58:40;11.00;99.90
19966;DHT22;10144;50.874;4.762;2024-02-14T08:01:08;11.00;99.90
19966;DHT22;10144;50.874;4.762;2024-02-14T08:03:40;11.00;99.90
19966;DHT22;10144;50.874;4.762;2024-02-14T08:06:06;11.00;99.90
19966;DHT22;10144;50.874;4.762;2024-02-14T08:08:38;10.90;99.90
19966;DHT22;10144;50.874;4.762;2024-02-14T08:11:06;11.00;99.90
19966;DHT22;10144;50.874;4.762;2024-02-14T08:13:38;11.20;99.90
19966;DHT22;10144;50.874;4.762;2024-02-14T08:16:10;11.10;99.90
19966;DHT22;10144;50.874;4.762;2024-02-14T08:18:39;11.10;99.90
19966;DHT22;10144;50.874;4.762;2024-02-14T08:21:06;11.10;99.90
19966;DHT22;10144;50.874;4.762;2024-02-14T08:23:34;11.20;99.90
19966;DHT22;10144;50.874;4.762;2024-02-14T08:26:00;11.20;99.90
19966;DHT22;10144;50.874;4.762;2024-02-14T08:31:57;11.30;99.90
19966;DHT22;10144;50.874;4.762;2024-02-14T08:37:54;11.20;99.90
19966;DHT22;10144;50.874;4.762;2024-02-14T08:43:46;11.10;99.90
19966;DHT22;10144;50.874;4.762;2024-02-14T08:49:34;10.90;99.90
19966;DHT22;10144;50.874;4.762;2024-02-14T08:55:21;10.80;99.90
19966;DHT22;10144;50.874;4.762;2024-02-14T09:01:09;10.90;99.90
19966;DHT22;10144;50.874;4.762;2024-02-14T09:06:58;10.90;99.90
19966;DHT22;10144;50.874;4.762;2024-02-14T09:12:46;10.80;99.90
19966;DHT22;10144;50.874;4.762;2024-02-14T09:18:34;10.80;99.90
19966;DHT22;10144;50.874;4.762;2024-02-14T09:24:22;10.90;99.90
19966;DHT22;10144;50.874;4.762;2024-02-14T09:30:10;11.10;99.90
19966;DHT22;10144;50.874;4.762;2024-02-14T09:35:58;11.10;99.90
19966;DHT22;10144;50.874;4.762;2024-02-14T09:41:54;11.10;99.90
19966;DHT22;10144;50.874;4.762;2024-02-14T09:47:43;11.10;99.90
19966;DHT22;10144;50.874;4.762;2024-02-14T09:53:35;11.00;99.90
19966;DHT22;10144;50.874;4.762;2024-02-14T09:59:25;11.20;99.90
19966;DHT22;10144;50.874;4.762;2024-02-14T10:05:16;11.40;99.90
19966;DHT22;10144;50.874;4.762;2024-02-14T10:11:04;11.30;99.90
19966;DHT22;10144;50.874;4.762;2024-02-14T10:16:52;11.20;99.90
19966;DHT22;10144;50.874;4.762;2024-02-14T10:22:40;11.30;99.90
19966;DHT22;10144;50.874;4.762;2024-02-14T10:28:28;11.40;99.90
19966;DHT22;10144;50.874;4.762;2024-02-14T10:34:24;11.40;99.90
19966;DHT22;10144;50.874;4.762;2024-02-14T10:40:14;11.50;99.90
19966;DHT22;10144;50.874;4.762;2024-02-14T10:46:08;11.60;99.90
19966;DHT22;10144;50.874;4.762;2024-02-14T10:51:59;11.50;99.90
19966;DHT22;10144;50.874;4.762;2024-02-14T10:57:52;11.50;99.90
19966;DHT22;10144;50.874;4.762;2024-02-14T11:03:47;11.50;99.90
19966;DHT22;10144;50.874;4.762;2024-02-14T11:09:40;11.50;99.90
19966;DHT22;10144;50.874;4.762;2024-02-14T11:15:35;11.60;99.90
19966;DHT22;10144;50.874;4.762;2024-02-14T11:34:27;11.90;99.90
19966;DHT22;10144;50.874;4.762;2024-02-14T11:40:15;11.90;99.90
19966;DHT22;10144;50.874;4.762;2024-02-14T11:46:09;11.90;99.90
19966;DHT22;10144;50.874;4.762;2024-02-14T11:51:57;11.80;99.90
19966;DHT22;10144;50.874;4.762;2024-02-14T11:57:45;11.80;99.90
19966;DHT22;10144;50.874;4.762;2024-02-14T12:03:36;11.80;99.90
19966;DHT22;10144;50.874;4.762;2024-02-14T12:09:26;11.90;99.90
19966;DHT22;10144;50.874;4.762;2024-02-14T12:25:30;11.90;99.90
19966;DHT22;10144;50.874;4.762;2024-02-14T12:41:35;12.20;99.90
19966;DHT22;10144;50.874;4.762;2024-02-14T12:44:05;12.20;99.90
19966;DHT22;10144;50.874;4.762;2024-02-14T12:46:31;12.20;99.90
19966;DHT22;10144;50.874;4.762;2024-02-14T12:48:57;12.20;99.90
19966;DHT22;10144;50.874;4.762;2024-02-14T12:51:23;12.10;99.90
19966;DHT22;10144;50.874;4.762;2024-02-14T12:53:53;12.20;99.90
19966;DHT22;10144;50.874;4.762;2024-02-14T12:56:19;12.30;99.90
19966;DHT22;10144;50.874;4.762;2024-02-14T12:58:47;12.30;99.90
19966;DHT22;10144;50.874;4.762;2024-02-14T13:01:13;12.30;99.90
19966;DHT22;10144;50.874;4.762;2024-02-14T13:03:40;12.10;99.90
19966;DHT22;10144;50.874;4.762;2024-02-14T13:06:05;12.10;99.90
19966;DHT22;10144;50.874;4.762;2024-02-14T13:08:31;12.10;99.90
19966;DHT22;10144;50.874;4.762;2024-02-14T13:10:57;12.10;99.90
19966;DHT22;10144;50.874;4.762;2024-02-14T13:13:23;12.20;99.90
19966;DHT22;10144;50.874;4.762;2024-02-14T13:15:49;12.30;99.90
19966;DHT22;10144;50.874;4.762;2024-02-14T13:18:15;12.30;99.90
19966;DHT22;10144;50.874;4.762;2024-02-14T13:20:41;12.40;99.90
19966;DHT22;10144;50.874;4.762;2024-02-14T13:23:09;12.40;99.90
19966;DHT22;10144;50.874;4.762;2024-02-14T13:25:36;12.50;99.90
19966;DHT22;10144;50.874;4.762;2024-02-14T13:28:05;12.50;99.90
19966;DHT22;10144;50.874;4.762;2024-02-14T13:30:31;12.40;99.90
19966;DHT22;10144;50.874;4.762;2024-02-14T13:32:58;12.40;99.90
19966;DHT22;10144;50.874;4.762;2024-02-14T13:35:23;12.50;99.90
19966;DHT22;10144;50.874;4.762;2024-02-14T13:37:49;12.50;99.90
19966;DHT22;10144;50.874;4.762;2024-02-14T13:40:16;12.40;99.90
19966;DHT22;10144;50.874;4.762;2024-02-14T13:42:48;12.40;99.90
19966;DHT22;10144;50.874;4.762;2024-02-14T13:45:16;12.60;99.90
19966;DHT22;10144;50.874;4.762;2024-02-14T13:47:43;12.50;99.90
19966;DHT22;10144;50.874;4.762;2024-02-14T13:50:14;12.50;99.90
19966;DHT22;10144;50.874;4.762;2024-02-14T13:52:43;12.50;99.90
19966;DHT22;10144;50.874;4.762;2024-02-14T13:55:11;12.40;99.90
19966;DHT22;10144;50.874;4.762;2024-02-14T13:57:39;12.40;99.90
19966;DHT22;10144;50.874;4.762;2024-02-14T14:00:08;12.40;99.90
19966;DHT22;10144;50.874;4.762;2024-02-14T14:02:41;12.40;99.90
19966;DHT22;10144;50.874;4.762;2024-02-14T14:05:12;12.40;99.90
19966;DHT22;10144;50.874;4.762;2024-02-14T14:07:42;12.40;99.90
19966;DHT22;10144;50.874;4.762;2024-02-14T14:10:10;12.30;99.90
19966;DHT22;10144;50.874;4.762;2024-02-14T14:12:41;12.50;99.90
19966;DHT22;10144;50.874;4.762;2024-02-14T14:15:10;12.40;99.90
19966;DHT22;10144;50.874;4.762;2024-02-14T14:17:36;12.30;99.90
19966;DHT22;10144;50.874;4.762;2024-02-14T14:20:04;12.30;99.90
19966;DHT22;10144;50.874;4.762;2024-02-14T14:22:30;12.30;99.90
19966;DHT22;10144;50.874;4.762;2024-02-14T14:24:55;12.30;99.90
19966;DHT22;10144;50.874;4.762;2024-02-14T14:27:24;12.40;99.90
19966;DHT22;10144;50.874;4.762;2024-02-14T14:29:52;12.40;99.90
19966;DHT22;10144;50.874;4.762;2024-02-14T14:32:20;12.40;99.90
19966;DHT22;10144;50.874;4.762;2024-02-14T14:34:52;12.40;99.90
19966;DHT22;10144;50.874;4.762;2024-02-14T14:37:20;12.40;99.90
19966;DHT22;10144;50.874;4.762;2024-02-14T14:39:47;12.40;99.90
19966;DHT22;10144;50.874;4.762;2024-02-14T14:42:14;12.40;99.90
19966;DHT22;10144;50.874;4.762;2024-02-14T14:44:40;12.50;99.90
19966;DHT22;10144;50.874;4.762;2024-02-14T14:47:10;12.50;99.90
19966;DHT22;10144;50.874;4.762;2024-02-14T14:49:39;12.60;99.90
19966;DHT22;10144;50.874;4.762;2024-02-14T14:52:08;12.60;99.90
19966;DHT22;10144;50.874;4.762;2024-02-14T14:54:36;12.50;99.90
19966;DHT22;10144;50.874;4.762;2024-02-14T14:57:03;12.50;99.90
19966;DHT22;10144;50.874;4.762;2024-02-14T14:59:35;12.50;99.90
19966;DHT22;10144;50.874;4.762;2024-02-14T15:02:04;12.50;99.90
19966;DHT22;10144;50.874;4.762;2024-02-14T15:04:31;12.50;99.90
19966;DHT22;10144;50.874;4.762;2024-02-14T15:07:00;12.60;99.90
19966;DHT22;10144;50.874;4.762;2024-02-14T15:09:25;12.60;99.90
19966;DHT22;10144;50.874;4.762;2024-02-14T15:11:54;12.60;99.90
19966;DHT22;10144;50.874;4.762;2024-02-14T15:14:24;12.60;99.90
19966;DHT22;10144;50.874;4.762;2024-02-14T15:16:49;12.60;99.90
19966;DHT22;10144;50.874;4.762;2024-02-14T15:19:15;12.50;99.90
19966;DHT22;10144;50.874;4.762;2024-02-14T15:21:41;12.70;99.90
19966;DHT22;10144;50.874;4.762;2024-02-14T15:24:08;12.80;99.90
19966;DHT22;10144;50.874;4.762;2024-02-14T15:26:36;12.80;99.90
19966;DHT22;10144;50.874;4.762;2024-02-14T15:29:17;12.70;99.90
19966;DHT22;10144;50.874;4.762;2024-02-14T15:32:02;12.60;99.90
19966;DHT22;10144;50.874;4.762;2024-02-14T15:34:46;12.50;99.90
19966;DHT22;10144;50.874;4.762;2024-02-14T15:37:12;12.60;99.90
19966;DHT22;10144;50.874;4.762;2024-02-14T15:39:38;12.50;99.90
19966;DHT22;10144;50.874;4.762;2024-02-14T15:42:04;12.50;99.90
19966;DHT22;10144;50.874;4.762;2024-02-14T15:44:29;12.50;99.90
19966;DHT22;10144;50.874;4.762;2024-02-14T15:46:59;12.60;99.90
19966;DHT22;10144;50.874;4.762;2024-02-14T15:49:25;12.60;99.90
19966;DHT22;10144;50.874;4.762;2024-02-14T15:51:51;12.60;99.90
19966;DHT22;10144;50.874;4.762;2024-02-14T15:54:17;12.60;99.90
19966;DHT22;10144;50.874;4.762;2024-02-14T15:56:42;12.60;99.90
19966;DHT22;10144;50.874;4.762;2024-02-14T15:59:09;12.50;99.90
19966;DHT22;10144;50.874;4.762;2024-02-14T16:01:34;12.60;99.90
19966;DHT22;10144;50.874;4.762;2024-02-14T16:04:00;12.70;99.90
19966;DHT22;10144;50.874;4.762;2024-02-14T16:06:26;12.70;99.90
19966;DHT22;10144;50.874;4.762;2024-02-14T16:08:51;12.70;99.90
19966;DHT22;10144;50.874;4.762;2024-02-14T16:11:18;12.70;99.90
19966;DHT22;10144;50.874;4.762;2024-02-14T16:13:43;12.60;99.90
19966;DHT22;10144;50.874;4.762;2024-02-14T16:16:09;12.70;99.90
19966;DHT22;10144;50.874;4.762;2024-02-14T16:18:35;12.60;99.90
19966;DHT22;10144;50.874;4.762;2024-02-14T16:21:02;12.70;99.90
19966;DHT22;10144;50.874;4.762;2024-02-14T16:23:28;12.60;99.90
19966;DHT22;10144;50.874;4.762;2024-02-14T16:25:53;12.60;99.90
19966;DHT22;10144;50.874;4.762;2024-02-14T16:28:20;12.60;99.90
19966;DHT22;10144;50.874;4.762;2024-02-14T16:30:46;12.60;99.90
19966;DHT22;10144;50.874;4.762;2024-02-14T16:33:12;12.50;99.90
19966;DHT22;10144;50.874;4.762;2024-02-14T16:35:37;12.50;99.90
19966;DHT22;10144;50.874;4.762;2024-02-14T16:38:03;12.50;99.90
19966;DHT22;10144;50.874;4.762;2024-02-14T16:40:29;12.50;99.90
19966;DHT22;10144;50.874;4.762;2024-02-14T16:42:56;12.40;99.90
19966;DHT22;10144;50.874;4.762;2024-02-14T16:45:26;12.50;99.90
19966;DHT22;10144;50.874;4.762;2024-02-14T16:47:51;12.50;99.90
19966;DHT22;10144;50.874;4.762;2024-02-14T16:50:17;12.50;99.90
19966;DHT22;10144;50.874;4.762;2024-02-14T16:52:43;12.50;99.90
19966;DHT22;10144;50.874;4.762;2024-02-14T16:55:09;12.40;99.90
19966;DHT22;10144;50.874;4.762;2024-02-14T16:57:36;12.50;99.90
19966;DHT22;10144;50.874;4.762;2024-02-14T17:00:03;12.50;99.90
19966;DHT22;10144;50.874;4.762;2024-02-14T17:02:29;12.60;99.90
19966;DHT22;10144;50.874;4.762;2024-02-14T17:04:56;12.60;99.90
19966;DHT22;10144;50.874;4.762;2024-02-14T17:07:21;12.60;99.90
19966;DHT22;10144;50.874;4.762;2024-02-14T17:09:47;12.70;99.90
19966;DHT22;10144;50.874;4.762;2024-02-14T17:12:12;12.70;99.90
19966;DHT22;10144;50.874;4.762;2024-02-14T17:14:38;12.70;99.90
19966;DHT22;10144;50.874;4.762;2024-02-14T17:17:04;12.70;99.90
19966;DHT22;10144;50.874;4.762;2024-02-14T17:19:29;12.70;99.90
19966;DHT22;10144;50.874;4.762;2024-02-14T17:21:55;12.70;99.90
19966;DHT22;10144;50.874;4.762;2024-02-14T17:24:21;12.70;99.90
19966;DHT22;10144;50.874;4.762;2024-02-14T17:26:48;12.60;99.90
19966;DHT22;10144;50.874;4.762;2024-02-14T17:29:14;12.50;99.90
19966;DHT22;10144;50.874;4.762;2024-02-14T17:31:40;12.60;99.90
19966;DHT22;10144;50.874;4.762;2024-02-14T17:34:06;12.60;99.90
19966;DHT22;10144;50.874;4.762;2024-02-14T17:36:32;12.50;99.90
19966;DHT22;10144;50.874;4.762;2024-02-14T17:38:58;12.50;99.90
19966;DHT22;10144;50.874;4.762;2024-02-14T17:41:27;12.50;99.90
19966;DHT22;10144;50.874;4.762;2024-02-14T17:43:53;12.50;99.90
19966;DHT22;10144;50.874;4.762;2024-02-14T17:46:20;12.50;99.90
19966;DHT22;10144;50.874;4.762;2024-02-14T17:48:46;12.50;99.90
19966;DHT22;10144;50.874;4.762;2024-02-14T17:51:13;12.60;99.90
19966;DHT22;10144;50.874;4.762;2024-02-14T17:53:39;12.60;99.90
19966;DHT22;10144;50.874;4.762;2024-02-14T17:56:05;12.60;99.90
19966;DHT22;10144;50.874;4.762;2024-02-14T17:58:31;12.60;99.90
19966;DHT22;10144;50.874;4.762;2024-02-14T18:00:57;12.70;99.90
19966;DHT22;10144;50.874;4.762;2024-02-14T18:03:23;12.70;99.90
19966;DHT22;10144;50.874;4.762;2024-02-14T18:05:49;12.70;99.90
19966;DHT22;10144;50.874;4.762;2024-02-14T18:08:15;12.70;99.90
19966;DHT22;10144;50.874;4.762;2024-02-14T18:10:42;12.70;99.90
19966;DHT22;10144;50.874;4.762;2024-02-14T18:13:09;12.60;99.90
19966;DHT22;10144;50.874;4.762;2024-02-14T18:15:35;12.60;99.90
19966;DHT22;10144;50.874;4.762;2024-02-14T18:18:00;12.60;99.90
19966;DHT22;10144;50.874;4.762;2024-02-14T18:20:26;12.70;99.90
19966;DHT22;10144;50.874;4.762;2024-02-14T18:22:54;12.70;99.90
19966;DHT22;10144;50.874;4.762;2024-02-14T18:25:19;12.70;99.90